createdAt,value
2018-12-21T00:01:54.462Z,100.00
2018-12-21T00:04:27.238Z,100.00
2018-12-21T00:07:01.761Z,100.00
2018-12-21T00:09:38.712Z,100.00
2018-12-21T00:12:17.172Z,100.00
2018-12-21T00:14:51.615Z,100.00
2018-12-21T00:17:34.489Z,100.00
2018-12-21T00:20:12.277Z,100.00
2018-12-21T00:22:44.901Z,100.00
2018-12-21T00:25:18.431Z,100.00
2018-12-21T00:27:49.480Z,100.00
2018-12-21T00:30:22.313Z,100.00
2018-12-21T00:33:00.114Z,100.00
2018-12-21T00:35:38.320Z,100.00
2018-12-21T00:38:16.752Z,100.00
2018-12-21T00:40:59.559Z,100.00
2018-12-21T00:43:37.683Z,100.00
2018-12-21T00:46:15.816Z,100.00
2018-12-21T00:48:53.912Z,100.00
2018-12-21T00:51:30.367Z,100.00
2018-12-21T00:54:01.795Z,100.00
2018-12-21T00:56:34.648Z,100.00
2018-12-21T00:59:07.629Z,100.00
2018-12-21T01:01:45.379Z,100.00
2018-12-21T01:04:18.714Z,100.00
2018-12-21T01:06:53.340Z,100.00
2018-12-21T01:09:26.838Z,100.00
2018-12-21T01:12:06.051Z,100.00
2018-12-21T01:14:39.895Z,100.00
2018-12-21T01:17:13.165Z,100.00
2018-12-21T01:19:46.287Z,100.00
2018-12-21T01:22:23.313Z,100.00
2018-12-21T01:24:59.796Z,100.00
2018-12-21T01:27:33.180Z,100.00
2018-12-21T01:30:06.868Z,100.00
2018-12-21T01:32:39.526Z,100.00
2018-12-21T01:35:16.771Z,100.00
2018-12-21T01:37:51.353Z,100.00
2018-12-21T01:40:25.112Z,100.00
2018-12-21T01:42:55.585Z,100.00
2018-12-21T01:45:28.098Z,100.00
2018-12-21T01:48:01.524Z,100.00
2018-12-21T01:50:34.677Z,100.00
2018-12-21T01:53:08.306Z,100.00
2018-12-21T01:55:46.380Z,100.00
2018-12-21T01:58:20.705Z,100.00
2018-12-21T02:00:54.259Z,100.00
2018-12-21T02:03:32.295Z,100.00
2018-12-21T02:06:11.813Z,100.00
2018-12-21T02:08:45.710Z,100.00
2018-12-21T02:11:23.564Z,100.00
2018-12-21T02:13:58.466Z,100.00
2018-12-21T02:16:35.362Z,100.00
2018-12-21T02:19:08.356Z,100.00
2018-12-21T02:21:42.115Z,100.00
2018-12-21T02:24:21.006Z,100.00
2018-12-21T02:26:54.869Z,100.00
2018-12-21T02:29:38.120Z,100.00
2018-12-21T02:32:15.211Z,100.00
2018-12-21T02:34:52.484Z,100.00
2018-12-21T02:37:30.828Z,100.00
2018-12-21T02:40:11.071Z,100.00
2018-12-21T02:42:45.412Z,100.00
2018-12-21T02:45:19.505Z,100.00
2018-12-21T02:47:56.691Z,100.00
2018-12-21T02:50:29.870Z,100.00
2018-12-21T02:53:07.668Z,100.00
2018-12-21T02:55:40.410Z,100.00
2018-12-21T02:58:13.639Z,100.00
2018-12-21T03:00:50.592Z,100.00
2018-12-21T03:03:24.676Z,100.00
2018-12-21T03:06:01.923Z,100.00
2018-12-21T03:08:36.714Z,100.00
2018-12-21T03:11:09.771Z,100.00
2018-12-21T03:13:43.462Z,100.00
2018-12-21T03:16:22.667Z,100.00
2018-12-21T03:18:56.906Z,100.00
2018-12-21T03:21:30.582Z,100.00
2018-12-21T03:24:03.755Z,100.00
2018-12-21T03:26:42.400Z,100.00
2018-12-21T03:29:17.187Z,100.00
2018-12-21T03:31:51.647Z,100.00
2018-12-21T03:34:28.984Z,100.00
2018-12-21T03:37:04.625Z,100.00
2018-12-21T03:39:42.917Z,100.00
2018-12-21T03:42:17.135Z,100.00
2018-12-21T03:44:52.533Z,100.00
2018-12-21T03:47:29.667Z,100.00
2018-12-21T03:50:02.474Z,100.00
2018-12-21T03:52:42.715Z,100.00
2018-12-21T03:55:16.455Z,100.00
2018-12-21T03:57:50.326Z,100.00
2018-12-21T04:00:26.240Z,100.00
2018-12-21T04:02:59.680Z,100.00
2018-12-21T04:05:30.926Z,100.00
2018-12-21T04:08:04.533Z,100.00
2018-12-21T04:10:37.572Z,100.00
2018-12-21T04:13:10.265Z,100.00
2018-12-21T04:15:43.862Z,100.00
2018-12-21T04:18:20.453Z,100.00
2018-12-21T04:20:54.198Z,100.00
2018-12-21T04:23:27.723Z,100.00
2018-12-21T04:26:04.250Z,100.00
2018-12-21T04:28:47.841Z,100.00
2018-12-21T04:31:22.139Z,100.00
2018-12-21T04:33:54.981Z,100.00
2018-12-21T04:41:33.198Z,100.00
2018-12-21T04:44:10.588Z,100.00
2018-12-21T04:46:47.155Z,100.00
2018-12-21T04:49:25.659Z,100.00
2018-12-21T04:51:59.591Z,100.00
2018-12-21T04:54:37.774Z,100.00
2018-12-21T04:57:09.310Z,100.00
2018-12-21T04:59:47.093Z,100.00
2018-12-21T05:02:25.268Z,100.00
2018-12-21T05:05:03.665Z,100.00
2018-12-21T05:07:36.524Z,100.00
2018-12-21T05:10:12.860Z,100.00
2018-12-21T05:12:45.944Z,100.00
2018-12-21T05:15:18.927Z,100.00
2018-12-21T05:17:52.488Z,100.00
2018-12-21T05:20:25.656Z,100.00
2018-12-21T05:23:04.285Z,100.00
2018-12-21T05:25:37.699Z,100.00
2018-12-21T05:28:10.855Z,100.00
2018-12-21T05:30:45.418Z,100.00
2018-12-21T05:33:23.282Z,100.00
2018-12-21T05:35:56.329Z,100.00
2018-12-21T05:38:33.426Z,100.00
2018-12-21T05:41:11.547Z,100.00
2018-12-21T05:43:44.600Z,100.00
2018-12-21T05:46:27.037Z,100.00
2018-12-21T05:49:01.437Z,100.00
2018-12-21T05:51:34.891Z,100.00
2018-12-21T05:54:10.130Z,100.00
2018-12-21T05:56:48.053Z,100.00
2018-12-21T05:59:24.653Z,100.00
2018-12-21T06:01:57.681Z,100.00
2018-12-21T06:04:34.818Z,100.00
2018-12-21T06:07:07.315Z,100.00
2018-12-21T06:09:41.114Z,100.00
2018-12-21T06:12:14.966Z,100.00
2018-12-21T06:14:51.661Z,100.00
2018-12-21T06:17:29.706Z,100.00
2018-12-21T06:20:07.384Z,100.00
2018-12-21T06:22:41.116Z,100.00
2018-12-21T06:25:19.102Z,100.00
2018-12-21T06:27:52.621Z,100.00
2018-12-21T06:30:33.118Z,100.00
2018-12-21T06:33:16.756Z,100.00
2018-12-21T06:36:03.732Z,100.00
2018-12-21T06:38:42.954Z,100.00
2018-12-21T06:41:27.179Z,100.00
2018-12-21T06:44:05.565Z,100.00
2018-12-21T06:46:43.989Z,100.00
2018-12-21T06:49:30.807Z,100.00
2018-12-21T06:52:05.493Z,100.00
2018-12-21T06:54:43.375Z,100.00
2018-12-21T06:57:22.559Z,100.00
2018-12-21T07:00:12.974Z,100.00
2018-12-21T07:02:55.259Z,100.00
2018-12-21T07:05:34.623Z,100.00
2018-12-21T07:08:18.819Z,100.00
2018-12-21T07:11:02.107Z,100.00
2018-12-21T07:13:41.728Z,100.00
2018-12-21T07:16:15.983Z,100.00
2018-12-21T07:18:53.093Z,100.00
2018-12-21T07:21:25.951Z,100.00
2018-12-21T07:23:58.989Z,100.00
2018-12-21T07:26:32.178Z,100.00
2018-12-21T07:29:09.499Z,100.00
2018-12-21T07:31:42.414Z,100.00
2018-12-21T07:34:18.541Z,100.00
2018-12-21T07:36:57.927Z,100.00
2018-12-21T07:39:34.980Z,100.00
2018-12-21T07:42:07.765Z,100.00
2018-12-21T07:44:42.143Z,100.00
2018-12-21T07:47:19.126Z,100.00
2018-12-21T07:49:53.181Z,100.00
2018-12-21T07:52:30.945Z,100.00
2018-12-21T07:55:04.779Z,99.83
2018-12-21T07:57:35.179Z,100.00
2018-12-21T08:00:11.205Z,99.80
2018-12-21T08:02:44.653Z,99.58
2018-12-21T08:05:18.336Z,100.00
2018-12-21T08:07:50.672Z,100.00
2018-12-21T08:10:24.633Z,99.89
2018-12-21T08:12:56.937Z,99.78
2018-12-21T08:15:29.498Z,99.59
2018-12-21T08:18:03.059Z,98.67
2018-12-21T08:20:35.866Z,98.38
2018-12-21T08:23:09.180Z,97.96
2018-12-21T08:25:46.838Z,97.90
2018-12-21T08:28:17.950Z,97.62
2018-12-21T08:30:55.328Z,97.63
2018-12-21T08:33:31.867Z,97.37
2018-12-21T08:36:04.146Z,96.35
2018-12-21T08:38:39.172Z,95.78
2018-12-21T08:41:12.859Z,95.29
2018-12-21T08:43:45.531Z,95.38
2018-12-21T08:46:19.512Z,95.28
2018-12-21T08:48:57.073Z,94.41
2018-12-21T08:51:30.753Z,94.64
2018-12-21T08:54:07.376Z,93.01
2018-12-21T08:56:44.590Z,93.35
2018-12-21T08:59:20.747Z,92.69
2018-12-21T09:01:57.006Z,92.58
2018-12-21T09:04:32.307Z,92.59
2018-12-21T09:07:05.248Z,92.28
2018-12-21T09:09:36.578Z,92.49
2018-12-21T09:12:13.128Z,93.94
2018-12-21T09:14:45.604Z,94.54
2018-12-21T09:17:17.929Z,94.09
2018-12-21T09:19:50.975Z,94.02
2018-12-21T09:22:23.860Z,94.83
2018-12-21T09:24:56.892Z,94.47
2018-12-21T09:27:27.660Z,94.42
2018-12-21T09:30:08.543Z,93.47
2018-12-21T09:32:39.254Z,93.14
2018-12-21T09:35:16.638Z,92.97
2018-12-21T09:37:47.219Z,93.07
2018-12-21T09:40:17.631Z,94.08
2018-12-21T09:42:49.787Z,94.13
2018-12-21T09:45:22.253Z,94.66
2018-12-21T09:47:56.041Z,94.22
2018-12-21T09:50:32.387Z,93.95
2018-12-21T09:53:05.760Z,94.73
2018-12-21T09:55:39.320Z,95.15
2018-12-21T09:58:11.621Z,95.57
2018-12-21T10:00:44.944Z,94.48
2018-12-21T10:03:17.899Z,94.11
2018-12-21T10:05:48.962Z,93.76
2018-12-21T10:08:21.967Z,93.97
2018-12-21T10:10:59.035Z,94.18
2018-12-21T10:13:32.212Z,94.69
2018-12-21T10:16:08.442Z,94.04
2018-12-21T10:18:39.559Z,93.92
2018-12-21T10:21:12.310Z,93.16
2018-12-21T10:23:45.141Z,93.19
2018-12-21T10:26:19.456Z,93.71
2018-12-21T10:28:52.504Z,93.90
2018-12-21T10:31:28.714Z,93.59
2018-12-21T10:34:01.555Z,93.29
2018-12-21T10:36:38.762Z,93.87
2018-12-21T10:39:12.351Z,93.96
2018-12-21T10:41:44.949Z,93.81
2018-12-21T10:44:20.250Z,94.10
2018-12-21T10:46:51.737Z,93.80
2018-12-21T10:49:31.865Z,93.39
2018-12-21T10:52:03.581Z,93.61
2018-12-21T10:54:40.713Z,94.19
2018-12-21T10:57:12.865Z,93.66
2018-12-21T10:59:43.994Z,93.81
2018-12-21T11:02:20.370Z,93.54
2018-12-21T11:04:52.535Z,93.52
2018-12-21T11:07:29.570Z,93.97
2018-12-21T11:10:01.816Z,93.40
2018-12-21T11:12:34.132Z,93.71
2018-12-21T11:15:10.412Z,93.60
2018-12-21T11:17:44.464Z,93.79
2018-12-21T11:20:16.626Z,94.44
2018-12-21T11:22:49.631Z,93.80
2018-12-21T11:25:22.117Z,93.81
2018-12-21T11:27:55.259Z,94.20
2018-12-21T11:30:32.278Z,94.36
2018-12-21T11:33:04.725Z,94.16
2018-12-21T11:35:37.940Z,93.95
2018-12-21T11:38:11.750Z,93.59
2018-12-21T11:40:44.380Z,93.57
2018-12-21T11:43:17.328Z,93.66
2018-12-21T11:45:54.525Z,93.78
2018-12-21T11:48:27.393Z,94.52
2018-12-21T11:50:59.725Z,94.57
2018-12-21T11:53:36.671Z,94.54
2018-12-21T11:56:12.985Z,95.20
2018-12-21T11:58:46.028Z,94.95
2018-12-21T12:01:18.083Z,94.61
2018-12-21T12:03:51.410Z,95.16
2018-12-21T12:06:29.557Z,94.74
2018-12-21T12:09:06.342Z,94.97
2018-12-21T12:11:38.512Z,94.40
2018-12-21T12:14:16.310Z,94.49
2018-12-21T12:16:50.435Z,94.49
2018-12-21T12:19:27.349Z,95.21
2018-12-21T12:22:00.289Z,95.07
2018-12-21T12:24:32.791Z,95.36
2018-12-21T12:27:05.910Z,95.06
2018-12-21T12:29:39.573Z,95.17
2018-12-21T12:32:16.337Z,95.33
2018-12-21T12:34:49.427Z,94.95
2018-12-21T12:37:22.487Z,94.44
2018-12-21T12:39:55.541Z,94.92
2018-12-21T12:42:28.385Z,94.60
2018-12-21T12:45:08.012Z,94.87
2018-12-21T12:47:42.875Z,95.51
2018-12-21T12:50:20.034Z,95.23
2018-12-21T12:52:56.377Z,95.65
2018-12-21T12:55:34.093Z,95.29
2018-12-21T12:58:07.082Z,94.92
2018-12-21T13:00:43.758Z,95.28
2018-12-21T13:13:20.138Z,95.14
2018-12-21T13:15:53.701Z,95.42
2018-12-21T13:18:26.856Z,95.30
2018-12-21T13:20:59.646Z,95.51
2018-12-21T13:23:32.741Z,95.48
2018-12-21T13:26:05.286Z,95.53
2018-12-21T13:28:38.156Z,95.47
2018-12-21T13:31:12.146Z,95.60
2018-12-21T13:33:44.554Z,96.01
2018-12-21T13:36:26.821Z,95.62
2018-12-21T13:39:05.980Z,95.67
2018-12-21T13:41:42.415Z,95.33
2018-12-21T13:44:15.333Z,95.15
2018-12-21T13:46:48.552Z,95.04
2018-12-21T13:49:21.194Z,95.33
2018-12-21T13:51:51.240Z,95.42
2018-12-21T13:54:24.319Z,95.35
2018-12-21T13:56:57.333Z,95.44
2018-12-21T13:59:30.501Z,95.62
2018-12-21T14:02:02.253Z,95.19
2018-12-21T14:04:34.872Z,95.41
2018-12-21T14:07:07.782Z,94.86
2018-12-21T14:09:44.886Z,95.03
2018-12-21T14:12:17.291Z,95.23
2018-12-21T14:14:50.332Z,95.52
2018-12-21T14:17:26.629Z,95.59
2018-12-21T14:19:59.974Z,95.68
2018-12-21T14:22:33.103Z,95.54
2018-12-21T14:25:08.241Z,95.31
2018-12-21T14:27:44.516Z,95.49
2018-12-21T14:30:17.709Z,94.69
2018-12-21T14:32:52.509Z,94.58
2018-12-21T14:35:25.630Z,94.35
2018-12-21T14:37:59.395Z,95.15
2018-12-21T14:40:37.343Z,95.36
2018-12-21T14:43:10.484Z,94.90
2018-12-21T14:45:43.769Z,95.12
2018-12-21T14:48:20.145Z,94.81
2018-12-21T14:50:52.322Z,94.69
2018-12-21T14:53:24.100Z,94.52
2018-12-21T14:55:54.719Z,94.74
2018-12-21T14:58:27.883Z,94.72
2018-12-21T15:01:02.824Z,95.12
2018-12-21T15:03:39.208Z,95.34
2018-12-21T15:06:16.681Z,95.79
2018-12-21T15:08:49.495Z,96.72
2018-12-21T15:11:21.885Z,96.68
2018-12-21T15:13:59.307Z,97.55
2018-12-21T15:16:32.183Z,100.00
2018-12-21T15:19:04.999Z,100.00
2018-12-21T15:21:36.438Z,98.07
2018-12-21T15:24:11.991Z,99.44
2018-12-21T15:26:43.726Z,99.71
2018-12-21T15:29:15.627Z,97.50
2018-12-21T15:31:49.472Z,95.43
2018-12-21T15:34:26.069Z,97.35
2018-12-21T15:36:59.795Z,99.62
2018-12-21T15:39:32.859Z,96.75
2018-12-21T15:42:06.378Z,95.04
2018-12-21T15:44:39.489Z,95.60
2018-12-21T15:47:34.811Z,97.39
2018-12-21T15:50:36.778Z,99.77
2018-12-21T15:53:29.090Z,99.16
2018-12-21T15:56:17.143Z,98.08
2018-12-21T15:59:15.266Z,96.15
2018-12-21T16:01:57.811Z,93.34
2018-12-21T16:04:39.592Z,95.11
2018-12-21T16:07:38.337Z,91.87
2018-12-21T16:10:28.601Z,94.89
2018-12-21T16:13:18.419Z,93.71
2018-12-21T16:15:51.668Z,94.07
2018-12-21T16:18:27.747Z,91.41
2018-12-21T16:21:02.471Z,92.83
2018-12-21T16:31:19.563Z,93.18
2018-12-21T16:33:52.679Z,89.69
2018-12-21T16:36:30.137Z,89.88
2018-12-21T16:39:08.577Z,90.43
2018-12-21T16:41:41.616Z,91.57
2018-12-21T16:44:15.085Z,91.98
2018-12-21T16:46:48.712Z,92.48
2018-12-21T16:49:21.852Z,93.08
2018-12-21T16:51:55.730Z,93.22
2018-12-21T16:54:29.786Z,93.43
2018-12-21T16:57:03.162Z,93.76
2018-12-21T16:59:36.605Z,94.15
2018-12-21T17:02:13.699Z,94.27
2018-12-21T17:04:47.968Z,94.50
2018-12-21T17:07:22.007Z,94.43
2018-12-21T17:09:59.094Z,94.43
2018-12-21T17:12:36.570Z,94.22
2018-12-21T17:15:10.475Z,94.39
2018-12-21T17:17:43.846Z,94.37
2018-12-21T17:20:23.591Z,94.23
2018-12-21T17:22:57.682Z,94.72
2018-12-21T17:25:35.968Z,94.88
2018-12-21T17:28:10.409Z,94.93
2018-12-21T17:30:48.600Z,94.86
2018-12-21T17:33:23.452Z,94.74
2018-12-21T17:35:57.061Z,94.79
2018-12-21T17:38:30.575Z,94.90
2018-12-21T17:41:02.898Z,95.15
2018-12-21T17:43:38.344Z,95.18
2018-12-21T17:46:15.261Z,95.39
2018-12-21T17:48:46.947Z,95.69
2018-12-21T17:51:19.558Z,95.56
2018-12-21T17:53:52.746Z,95.71
2018-12-21T17:56:29.841Z,95.73
2018-12-21T17:59:01.790Z,96.00
2018-12-21T18:01:37.658Z,96.09
2018-12-21T18:04:22.679Z,96.10
2018-12-21T18:07:03.782Z,96.18
2018-12-21T18:09:38.165Z,96.09
2018-12-21T18:12:10.867Z,96.18
2018-12-21T18:14:44.026Z,96.72
2018-12-21T18:17:18.321Z,96.67
2018-12-21T18:19:51.346Z,96.48
2018-12-21T18:22:26.049Z,97.01
2018-12-21T18:25:03.907Z,97.20
2018-12-21T18:27:36.407Z,97.66
2018-12-21T18:30:19.866Z,97.82
2018-12-21T18:32:56.761Z,97.86
2018-12-21T18:35:33.550Z,98.18
2018-12-21T18:38:18.584Z,98.04
2018-12-21T18:40:56.383Z,97.83
2018-12-21T18:43:29.359Z,98.01
2018-12-21T18:46:03.218Z,97.99
2018-12-21T18:48:36.189Z,98.24
2018-12-21T18:51:07.121Z,98.10
2018-12-21T18:53:40.316Z,97.90
2018-12-21T18:56:22.957Z,97.49
2018-12-21T18:58:56.109Z,97.62
2018-12-21T19:01:27.542Z,97.45
2018-12-21T19:04:00.585Z,97.37
2018-12-21T19:06:33.219Z,97.52
2018-12-21T19:09:11.418Z,97.77
2018-12-21T19:11:49.375Z,97.99
2018-12-21T19:14:26.458Z,97.83
2018-12-21T19:16:58.935Z,100.00
2018-12-21T19:19:32.085Z,100.00
2018-12-21T19:22:05.361Z,99.98
2018-12-21T19:24:38.638Z,98.91
2018-12-21T19:27:11.025Z,98.39
2018-12-21T19:29:44.292Z,100.00
2018-12-21T19:32:17.471Z,99.77
2018-12-21T19:34:54.668Z,99.03
2018-12-21T19:37:27.790Z,100.00
2018-12-21T19:40:00.936Z,100.00
2018-12-21T19:42:34.378Z,100.00
2018-12-21T19:45:11.095Z,99.79
2018-12-21T19:47:43.624Z,100.00
2018-12-21T19:50:16.652Z,100.00
2018-12-21T19:52:49.741Z,98.37
2018-12-21T19:57:13.280Z,95.59
2018-12-21T19:59:46.234Z,92.20
2018-12-21T20:02:18.543Z,94.15
2018-12-21T20:04:54.969Z,100.00
2018-12-21T20:07:31.987Z,99.10
2018-12-21T20:10:05.944Z,98.95
2018-12-21T20:12:38.867Z,97.33
2018-12-21T20:15:11.953Z,95.45
2018-12-21T20:17:44.900Z,97.11
2018-12-21T20:20:21.174Z,95.46
2018-12-21T20:22:54.420Z,95.93
2018-12-21T20:25:25.268Z,93.41
2018-12-21T20:28:02.078Z,92.80
2018-12-21T20:30:32.825Z,93.06
2018-12-21T20:33:05.844Z,92.97
2018-12-21T20:35:38.961Z,93.43
2018-12-21T20:38:21.367Z,93.52
2018-12-21T20:40:53.616Z,94.06
2018-12-21T20:43:26.318Z,94.06
2018-12-21T20:46:02.669Z,95.22
2018-12-21T20:48:40.236Z,95.53
2018-12-21T20:51:16.956Z,95.39
2018-12-21T20:53:53.944Z,95.27
2018-12-21T20:56:30.449Z,96.27
2018-12-21T20:59:15.788Z,96.28
2018-12-21T21:01:53.160Z,96.00
2018-12-21T21:04:26.154Z,96.17
2018-12-21T21:07:02.878Z,96.32
2018-12-21T21:09:32.950Z,96.07
2018-12-21T21:12:06.079Z,96.45
2018-12-21T21:14:44.098Z,96.25
2018-12-21T21:17:21.495Z,96.37
2018-12-21T21:19:58.398Z,96.88
2018-12-21T21:22:35.234Z,97.30
2018-12-21T21:25:11.600Z,96.68
2018-12-21T21:27:48.456Z,97.07
2018-12-21T21:30:21.012Z,97.68
2018-12-21T21:32:54.780Z,97.56
2018-12-21T21:35:27.695Z,97.71
2018-12-21T21:38:00.271Z,97.73
2018-12-21T21:40:34.392Z,98.03
2018-12-21T21:43:11.545Z,97.89
2018-12-21T21:45:48.136Z,97.73
2018-12-21T21:48:25.205Z,97.43
2018-12-21T21:51:01.700Z,97.95
2018-12-21T21:53:35.142Z,97.40
2018-12-21T21:56:07.957Z,97.95
2018-12-21T21:58:42.102Z,97.86
2018-12-21T22:01:13.255Z,97.94
2018-12-21T22:03:46.245Z,97.69
2018-12-21T22:06:24.034Z,97.56
2018-12-21T22:08:54.512Z,97.50
2018-12-21T22:11:27.916Z,97.64
2018-12-21T22:14:00.768Z,98.24
2018-12-21T22:16:33.376Z,98.14
2018-12-21T22:19:09.525Z,97.62
2018-12-21T22:21:42.694Z,97.44
2018-12-21T22:24:12.847Z,97.17
2018-12-21T22:26:45.240Z,97.35
2018-12-21T22:29:22.567Z,97.30
2018-12-21T22:31:56.182Z,97.71
2018-12-21T22:34:28.647Z,97.38
2018-12-21T22:37:01.219Z,98.00
2018-12-21T22:39:34.754Z,98.14
2018-12-21T22:42:11.254Z,97.74
2018-12-21T22:44:48.431Z,97.69
2018-12-21T22:47:21.407Z,97.69
2018-12-21T22:49:54.295Z,97.61
2018-12-21T22:52:27.359Z,97.65
2018-12-21T22:55:01.238Z,97.65
2018-12-21T22:57:40.723Z,97.66
2018-12-21T23:00:21.581Z,97.68
2018-12-21T23:02:57.864Z,97.36
2018-12-21T23:05:31.266Z,97.35
2018-12-21T23:08:04.998Z,97.70
2018-12-21T23:10:37.455Z,97.68
2018-12-21T23:13:11.496Z,97.29
2018-12-21T23:15:48.878Z,97.71
2018-12-21T23:18:21.402Z,97.79
2018-12-21T23:20:58.777Z,97.80
2018-12-21T23:23:31.621Z,98.47
2018-12-21T23:26:04.711Z,98.49
2018-12-21T23:28:36.981Z,98.41
2018-12-21T23:31:13.495Z,98.10
2018-12-21T23:33:46.461Z,98.00
2018-12-21T23:36:20.239Z,97.76
2018-12-21T23:38:53.017Z,97.25
2018-12-21T23:41:27.023Z,96.97
2018-12-21T23:44:00.321Z,97.04
2018-12-21T23:46:37.300Z,97.09
2018-12-21T23:49:14.502Z,97.06
2018-12-21T23:51:51.160Z,97.08
2018-12-21T23:54:24.345Z,97.64
2018-12-21T23:57:03.519Z,97.60
2018-12-21T23:59:36.805Z,98.02
